createdAt,value
2018-03-18T00:01:00.305Z,85.83
2018-03-18T00:03:27.823Z,85.83
2018-03-18T00:05:55.319Z,85.61
2018-03-18T00:08:22.840Z,85.73
2018-03-18T00:10:50.436Z,85.90
2018-03-18T00:13:18.112Z,86.11
2018-03-18T00:15:45.651Z,85.44
2018-03-18T00:18:13.296Z,85.60
2018-03-18T00:20:40.798Z,85.50
2018-03-18T00:23:08.351Z,85.35
2018-03-18T00:25:35.896Z,85.47
2018-03-18T00:28:03.412Z,85.84
2018-03-18T00:30:30.920Z,85.36
2018-03-18T00:32:58.453Z,85.85
2018-03-18T00:35:25.950Z,85.50
2018-03-18T00:37:53.493Z,85.35
2018-03-18T00:40:21.043Z,85.27
2018-03-18T00:42:48.529Z,85.36
2018-03-18T00:45:16.081Z,86.07
2018-03-18T00:47:43.627Z,85.68
2018-03-18T00:50:11.156Z,86.35
2018-03-18T00:52:38.743Z,85.69
2018-03-18T00:55:06.323Z,85.80
2018-03-18T00:57:39.459Z,85.76
2018-03-18T01:00:07.072Z,85.45
2018-03-18T01:02:34.728Z,85.36
2018-03-18T01:05:02.280Z,85.06
2018-03-18T01:07:29.779Z,84.82
2018-03-18T01:09:57.400Z,85.19
2018-03-18T01:12:24.897Z,85.54
2018-03-18T01:14:52.422Z,84.83
2018-03-18T01:17:19.976Z,85.06
2018-03-18T01:19:47.507Z,84.42
2018-03-18T01:22:15.099Z,84.47
2018-03-18T01:24:42.656Z,84.76
2018-03-18T01:27:10.162Z,85.05
2018-03-18T01:29:37.680Z,85.01
2018-03-18T01:32:05.198Z,84.87
2018-03-18T01:34:32.708Z,84.46
2018-03-18T01:37:00.209Z,84.88
2018-03-18T01:39:27.734Z,84.56
2018-03-18T01:41:55.367Z,84.92
2018-03-18T01:44:22.879Z,84.61
2018-03-18T01:46:54.386Z,85.43
2018-03-18T01:49:21.944Z,85.19
2018-03-18T01:51:49.500Z,85.55
2018-03-18T01:54:16.999Z,85.93
2018-03-18T01:56:44.527Z,85.24
2018-03-18T01:59:12.067Z,84.96
2018-03-18T02:01:39.585Z,85.07
2018-03-18T02:04:07.130Z,84.80
2018-03-18T02:06:34.658Z,84.75
2018-03-18T02:09:02.210Z,84.99
2018-03-18T02:11:29.740Z,84.49
2018-03-18T02:13:57.249Z,83.88
2018-03-18T02:16:24.764Z,84.93
2018-03-18T02:18:52.265Z,83.67
2018-03-18T02:21:19.932Z,84.82
2018-03-18T02:23:47.448Z,84.66
2018-03-18T02:26:14.968Z,85.06
2018-03-18T02:28:42.487Z,84.22
2018-03-18T02:31:10.119Z,84.33
2018-03-18T02:33:37.613Z,84.39
2018-03-18T02:36:05.189Z,84.62
2018-03-18T02:38:32.704Z,84.77
2018-03-18T02:41:00.224Z,84.18
2018-03-18T02:43:27.717Z,84.71
2018-03-18T02:45:55.240Z,83.73
2018-03-18T02:48:22.772Z,84.08
2018-03-18T02:50:50.311Z,84.32
2018-03-18T02:53:17.809Z,84.31
2018-03-18T02:55:45.333Z,84.00
2018-03-18T02:58:12.855Z,84.10
2018-03-18T03:00:40.356Z,84.03
2018-03-18T03:03:07.911Z,83.95
2018-03-18T03:05:35.472Z,84.16
2018-03-18T03:08:02.999Z,84.64
2018-03-18T03:10:30.492Z,84.67
2018-03-18T03:12:58.016Z,84.84
2018-03-18T03:15:25.516Z,85.10
2018-03-18T03:17:53.039Z,85.32
2018-03-18T03:20:20.535Z,85.18
2018-03-18T03:22:49.018Z,85.32
2018-03-18T03:25:16.515Z,85.02
2018-03-18T03:27:44.132Z,85.03
2018-03-18T03:30:11.636Z,84.58
2018-03-18T03:32:39.258Z,84.99
2018-03-18T03:35:06.775Z,84.79
2018-03-18T03:37:34.334Z,84.92
2018-03-18T03:40:01.872Z,84.74
2018-03-18T03:42:29.443Z,85.37
2018-03-18T03:44:57.044Z,85.63
2018-03-18T03:47:24.555Z,84.65
2018-03-18T03:49:52.089Z,84.91
2018-03-18T03:52:19.619Z,84.79
2018-03-18T03:54:47.136Z,84.95
2018-03-18T03:57:14.627Z,84.72
2018-03-18T03:59:42.146Z,84.89
2018-03-18T04:02:09.648Z,85.88
2018-03-18T04:04:37.189Z,85.42
2018-03-18T04:07:04.730Z,85.31
2018-03-18T04:09:32.219Z,85.12
2018-03-18T04:11:59.796Z,85.01
2018-03-18T04:14:27.333Z,85.14
2018-03-18T04:16:54.916Z,85.37
2018-03-18T04:19:22.436Z,84.51
2018-03-18T04:21:50.032Z,85.04
2018-03-18T04:24:17.592Z,85.29
2018-03-18T04:26:45.157Z,84.82
2018-03-18T04:29:12.675Z,85.18
2018-03-18T04:31:40.275Z,84.74
2018-03-18T04:34:07.801Z,84.85
2018-03-18T04:36:35.393Z,85.26
2018-03-18T04:39:02.913Z,85.15
2018-03-18T04:41:30.423Z,84.69
2018-03-18T04:43:57.938Z,84.86
2018-03-18T04:46:25.531Z,84.75
2018-03-18T04:48:53.052Z,84.78
2018-03-18T04:51:20.639Z,85.07
2018-03-18T04:53:48.146Z,84.85
2018-03-18T04:56:15.660Z,84.86
2018-03-18T04:58:43.161Z,85.36
2018-03-18T05:01:10.746Z,85.07
2018-03-18T05:03:38.376Z,84.72
2018-03-18T05:06:05.904Z,84.77
2018-03-18T05:08:33.450Z,84.82
2018-03-18T05:11:01.022Z,85.18
2018-03-18T05:13:28.533Z,84.81
2018-03-18T05:15:56.053Z,85.29
2018-03-18T05:18:23.548Z,85.03
2018-03-18T05:20:51.073Z,84.52
2018-03-18T05:23:18.576Z,84.93
2018-03-18T05:25:46.090Z,84.65
2018-03-18T05:28:13.594Z,84.67
2018-03-18T05:30:41.197Z,85.23
2018-03-18T05:33:08.688Z,85.58
2018-03-18T05:35:36.204Z,85.03
2018-03-18T05:38:03.724Z,84.72
2018-03-18T05:40:31.264Z,84.46
2018-03-18T05:42:58.760Z,84.13
2018-03-18T05:45:26.279Z,84.04
2018-03-18T05:47:53.775Z,83.73
2018-03-18T05:50:21.355Z,84.27
2018-03-18T05:52:48.952Z,83.83
2018-03-18T05:55:16.476Z,84.09
2018-03-18T05:57:43.997Z,83.41
2018-03-18T06:00:11.488Z,84.91
2018-03-18T06:02:39.012Z,83.65
2018-03-18T06:05:06.583Z,84.38
2018-03-18T06:07:34.132Z,83.98
2018-03-18T06:10:01.646Z,83.99
2018-03-18T06:12:29.177Z,83.22
2018-03-18T06:14:56.673Z,83.29
2018-03-18T06:17:24.214Z,83.50
2018-03-18T06:19:52.668Z,83.10
2018-03-18T06:22:20.188Z,82.96
2018-03-18T06:24:47.731Z,82.92
2018-03-18T06:27:15.373Z,82.95
2018-03-18T06:29:42.872Z,82.28
2018-03-18T06:32:10.388Z,82.38
2018-03-18T06:34:37.884Z,82.12
2018-03-18T06:37:05.411Z,82.23
2018-03-18T06:39:32.905Z,82.12
2018-03-18T06:42:00.420Z,81.99
2018-03-18T06:44:27.915Z,81.70
2018-03-18T06:46:55.454Z,81.58
2018-03-18T06:49:22.998Z,80.97
2018-03-18T06:51:50.561Z,81.81
2018-03-18T06:54:18.122Z,81.00
2018-03-18T06:56:45.686Z,80.92
2018-03-18T06:59:13.204Z,81.02
2018-03-18T07:01:40.700Z,81.25
2018-03-18T07:04:08.228Z,81.19
2018-03-18T07:06:35.719Z,80.42
2018-03-18T07:09:03.232Z,80.27
2018-03-18T07:11:32.651Z,79.85
2018-03-18T07:14:00.213Z,79.22
2018-03-18T07:16:27.740Z,78.98
2018-03-18T07:18:55.264Z,79.21
2018-03-18T07:21:22.811Z,78.56
2018-03-18T07:23:50.376Z,77.79
2018-03-18T07:26:17.883Z,78.29
2018-03-18T07:28:45.495Z,78.93
2018-03-18T07:31:13.050Z,78.64
2018-03-18T07:33:40.580Z,79.10
2018-03-18T07:36:08.179Z,79.00
2018-03-18T07:38:35.736Z,78.97
2018-03-18T07:41:03.244Z,80.37
2018-03-18T07:43:31.556Z,79.99
2018-03-18T07:45:59.061Z,79.12
2018-03-18T07:48:26.584Z,80.08
2018-03-18T07:50:54.079Z,80.40
2018-03-18T07:53:21.620Z,79.81
2018-03-18T07:55:49.167Z,80.07
2018-03-18T07:58:16.712Z,78.91
2018-03-18T08:00:44.300Z,78.85
2018-03-18T08:03:11.806Z,79.98
2018-03-18T08:05:39.400Z,79.92
2018-03-18T08:08:07.000Z,80.09
2018-03-18T08:10:34.562Z,79.48
2018-03-18T08:13:02.055Z,79.21
2018-03-18T08:15:30.609Z,80.14
2018-03-18T08:17:58.111Z,78.18
2018-03-18T08:20:25.681Z,78.01
2018-03-18T08:22:53.247Z,78.46
2018-03-18T08:25:20.772Z,78.72
2018-03-18T08:27:48.266Z,77.68
2018-03-18T08:30:15.800Z,78.04
2018-03-18T08:32:43.300Z,76.96
2018-03-18T08:35:10.836Z,76.77
2018-03-18T08:37:38.323Z,75.70
2018-03-18T08:40:05.860Z,76.58
2018-03-18T08:42:33.351Z,76.99
2018-03-18T08:45:00.896Z,76.88
2018-03-18T08:47:28.394Z,77.64
2018-03-18T08:49:55.932Z,78.03
2018-03-18T08:52:24.451Z,78.04
2018-03-18T08:54:51.968Z,77.89
2018-03-18T08:57:19.470Z,76.95
2018-03-18T08:59:47.983Z,77.60
2018-03-18T09:02:15.511Z,76.50
2018-03-18T09:04:43.041Z,77.79
2018-03-18T09:07:10.543Z,77.21
2018-03-18T09:09:38.068Z,77.08
2018-03-18T09:12:05.704Z,78.12
2018-03-18T09:14:33.208Z,78.05
2018-03-18T09:17:00.728Z,79.01
2018-03-18T09:19:28.248Z,78.27
2018-03-18T09:21:55.823Z,77.59
2018-03-18T09:24:23.320Z,77.65
2018-03-18T09:26:50.844Z,78.26
2018-03-18T09:29:18.353Z,78.63
2018-03-18T09:31:45.904Z,77.38
2018-03-18T09:34:13.400Z,77.03
2018-03-18T09:36:40.927Z,77.83
2018-03-18T09:39:08.640Z,76.89
2018-03-18T09:41:36.185Z,77.45
2018-03-18T09:44:03.681Z,76.43
2018-03-18T09:46:31.198Z,75.46
2018-03-18T09:48:58.701Z,76.44
2018-03-18T09:51:26.220Z,75.54
2018-03-18T09:53:53.716Z,76.25
2018-03-18T09:56:21.368Z,76.96
2018-03-18T09:58:48.867Z,77.00
2018-03-18T10:01:16.365Z,75.95
2018-03-18T10:03:43.892Z,75.82
2018-03-18T10:06:11.381Z,76.19
2018-03-18T10:08:38.932Z,75.83
2018-03-18T10:11:06.436Z,75.22
2018-03-18T10:13:34.044Z,76.04
2018-03-18T10:16:01.536Z,74.55
2018-03-18T10:18:29.053Z,75.82
2018-03-18T10:20:56.554Z,75.38
2018-03-18T10:23:24.068Z,74.97
2018-03-18T10:25:51.562Z,75.35
2018-03-18T10:28:19.101Z,75.85
2018-03-18T10:30:46.655Z,74.55
2018-03-18T10:33:14.219Z,75.34
2018-03-18T10:35:41.707Z,74.39
2018-03-18T10:38:09.308Z,74.78
2018-03-18T10:40:36.791Z,74.04
2018-03-18T10:43:06.368Z,73.60
2018-03-18T10:45:33.908Z,73.23
2018-03-18T10:48:01.427Z,73.63
2018-03-18T10:50:28.980Z,72.33
2018-03-18T10:52:56.513Z,72.56
2018-03-18T10:55:24.016Z,74.08
2018-03-18T10:57:51.528Z,74.00
2018-03-18T11:00:20.841Z,72.73
2018-03-18T11:02:50.687Z,73.53
2018-03-18T11:05:18.459Z,73.27
2018-03-18T11:07:46.087Z,73.05
2018-03-18T11:10:13.603Z,73.29
2018-03-18T11:12:41.861Z,73.95
2018-03-18T11:15:09.415Z,74.14
2018-03-18T11:17:36.968Z,73.88
2018-03-18T11:20:04.516Z,73.82
2018-03-18T11:22:32.007Z,74.65
2018-03-18T11:24:59.527Z,73.80
2018-03-18T11:27:27.098Z,73.77
2018-03-18T11:29:54.745Z,74.55
2018-03-18T11:32:22.247Z,75.08
2018-03-18T11:34:49.755Z,74.02
2018-03-18T11:37:17.247Z,74.60
2018-03-18T11:39:44.767Z,74.53
2018-03-18T11:42:12.286Z,74.71
2018-03-18T11:44:39.818Z,75.09
2018-03-18T11:47:07.344Z,74.97
2018-03-18T11:49:34.895Z,73.69
2018-03-18T11:52:02.397Z,73.79
2018-03-18T11:54:29.950Z,74.40
2018-03-18T11:56:57.456Z,74.23
2018-03-18T11:59:24.948Z,74.38
2018-03-18T12:01:52.519Z,73.84
2018-03-18T12:04:20.004Z,74.13
2018-03-18T12:06:47.544Z,73.78
2018-03-18T12:09:15.126Z,74.84
2018-03-18T12:11:42.669Z,74.46
2018-03-18T12:14:10.173Z,74.51
2018-03-18T12:16:37.692Z,73.67
2018-03-18T12:19:06.235Z,73.92
2018-03-18T12:21:33.768Z,75.07
2018-03-18T12:24:01.264Z,73.61
2018-03-18T12:26:28.987Z,75.26
2018-03-18T12:28:56.485Z,74.17
2018-03-18T12:31:24.023Z,74.90
2018-03-18T12:33:51.568Z,72.62
2018-03-18T12:36:19.133Z,74.40
2018-03-18T12:38:46.649Z,72.67
2018-03-18T12:41:15.172Z,73.88
2018-03-18T12:43:42.844Z,73.79
2018-03-18T12:46:10.379Z,73.66
2018-03-18T12:48:37.881Z,73.03
2018-03-18T12:51:05.423Z,73.21
2018-03-18T12:53:32.945Z,72.55
2018-03-18T12:56:00.469Z,73.24
2018-03-18T12:58:27.959Z,72.76
2018-03-18T13:00:55.476Z,74.15
2018-03-18T13:03:23.027Z,73.15
2018-03-18T13:05:50.563Z,72.91
2018-03-18T13:08:18.057Z,72.89
2018-03-18T13:10:45.584Z,72.83
2018-03-18T13:13:13.107Z,72.52
2018-03-18T13:15:40.613Z,71.84
2018-03-18T13:18:08.136Z,72.63
2018-03-18T13:20:36.642Z,73.42
2018-03-18T13:23:04.179Z,73.70
2018-03-18T13:25:31.763Z,74.29
2018-03-18T13:27:59.280Z,73.20
2018-03-18T13:30:26.776Z,73.53
2018-03-18T13:32:54.291Z,72.52
2018-03-18T13:35:21.787Z,72.09
2018-03-18T13:37:49.356Z,73.04
2018-03-18T13:40:16.908Z,72.62
2018-03-18T13:42:44.461Z,72.94
2018-03-18T13:45:12.924Z,74.00
2018-03-18T13:47:40.531Z,72.57
2018-03-18T13:50:08.050Z,72.14
2018-03-18T13:52:35.566Z,74.12
2018-03-18T13:55:03.055Z,73.72
2018-03-18T13:57:30.604Z,74.39
2018-03-18T13:59:58.093Z,73.87
2018-03-18T14:02:25.613Z,74.02
2018-03-18T14:04:53.159Z,73.40
2018-03-18T14:07:20.712Z,74.05
2018-03-18T14:09:48.281Z,74.38
2018-03-18T14:12:15.781Z,75.25
2018-03-18T14:14:43.302Z,74.64
2018-03-18T14:17:10.799Z,74.37
2018-03-18T14:19:38.328Z,74.47
2018-03-18T14:22:05.856Z,73.71
2018-03-18T14:24:33.407Z,73.00
2018-03-18T14:27:01.064Z,73.40
2018-03-18T14:29:28.615Z,73.35
2018-03-18T14:31:56.109Z,72.69
2018-03-18T14:34:23.632Z,73.45
2018-03-18T14:36:51.137Z,73.85
2018-03-18T14:39:18.669Z,73.22
2018-03-18T14:41:46.213Z,72.58
2018-03-18T14:44:13.764Z,73.33
2018-03-18T14:46:41.265Z,73.00
2018-03-18T14:49:08.798Z,73.25
2018-03-18T14:51:36.307Z,73.28
2018-03-18T14:54:03.989Z,73.47
2018-03-18T14:56:31.510Z,74.38
2018-03-18T14:58:59.227Z,73.45
2018-03-18T15:01:26.715Z,72.62
2018-03-18T15:03:54.243Z,73.02
2018-03-18T15:06:21.731Z,72.98
2018-03-18T15:08:49.262Z,73.53
2018-03-18T15:11:16.804Z,72.94
2018-03-18T15:13:44.321Z,73.14
2018-03-18T15:16:11.852Z,73.69
2018-03-18T15:18:39.376Z,74.07
2018-03-18T15:21:06.883Z,74.09
2018-03-18T15:23:34.381Z,73.98
2018-03-18T15:26:01.897Z,74.22
2018-03-18T15:28:29.444Z,74.43
2018-03-18T15:30:57.016Z,74.55
2018-03-18T15:33:24.517Z,75.96
2018-03-18T15:35:53.372Z,75.60
2018-03-18T15:38:20.913Z,74.63
2018-03-18T15:40:48.443Z,77.12
2018-03-18T15:43:15.971Z,76.27
2018-03-18T15:45:43.548Z,76.30
2018-03-18T15:48:11.115Z,76.56
2018-03-18T15:50:38.620Z,77.80
2018-03-18T15:53:06.123Z,77.63
2018-03-18T15:55:33.638Z,77.30
2018-03-18T15:58:01.136Z,77.92
2018-03-18T16:00:28.719Z,77.26
2018-03-18T16:02:56.526Z,77.83
2018-03-18T16:05:24.040Z,77.88
2018-03-18T16:07:51.530Z,78.37
2018-03-18T16:10:19.065Z,78.61
2018-03-18T16:12:46.600Z,78.85
2018-03-18T16:15:14.152Z,79.41
2018-03-18T16:17:41.697Z,77.99
2018-03-18T16:20:09.191Z,77.40
2018-03-18T16:22:36.768Z,78.23
2018-03-18T16:25:04.260Z,79.16
2018-03-18T16:27:31.799Z,79.62
2018-03-18T16:30:11.165Z,79.22
2018-03-18T16:32:38.695Z,79.03
2018-03-18T16:35:06.283Z,79.61
2018-03-18T16:37:33.812Z,80.27
2018-03-18T16:40:01.329Z,79.36
2018-03-18T16:42:28.874Z,78.69
2018-03-18T16:44:56.392Z,79.26
2018-03-18T16:47:23.929Z,80.61
2018-03-18T16:49:51.428Z,79.49
2018-03-18T16:52:18.984Z,79.78
2018-03-18T16:54:46.477Z,80.29
2018-03-18T16:57:13.992Z,80.45
2018-03-18T16:59:41.484Z,79.06
2018-03-18T17:02:09.001Z,80.65
2018-03-18T17:04:36.519Z,80.16
2018-03-18T17:07:04.035Z,78.96
2018-03-18T17:09:31.551Z,79.51
2018-03-18T17:11:59.123Z,80.73
2018-03-18T17:14:26.604Z,80.24
2018-03-18T17:16:54.196Z,80.29
2018-03-18T17:19:21.700Z,79.58
2018-03-18T17:21:49.217Z,79.34
2018-03-18T17:24:16.716Z,79.70
2018-03-18T17:26:44.308Z,79.92
2018-03-18T17:29:11.807Z,79.48
2018-03-18T17:31:39.462Z,79.85
2018-03-18T17:34:06.944Z,79.58
2018-03-18T17:36:34.436Z,79.55
2018-03-18T17:39:01.962Z,79.64
2018-03-18T17:41:29.456Z,80.06
2018-03-18T17:43:57.008Z,79.24
2018-03-18T17:46:36.447Z,79.65
2018-03-18T17:49:15.983Z,79.92
2018-03-18T17:54:56.219Z,80.26
2018-03-18T17:57:23.811Z,80.44
2018-03-18T17:59:51.276Z,80.78
2018-03-18T18:02:18.809Z,80.24
2018-03-18T18:04:46.309Z,80.42
2018-03-18T18:07:13.808Z,80.21
2018-03-18T18:09:41.324Z,79.95
2018-03-18T18:12:09.244Z,80.67
2018-03-18T18:14:37.867Z,80.66
2018-03-18T18:17:05.398Z,81.03
2018-03-18T18:19:33.019Z,81.28
2018-03-18T18:22:00.529Z,81.55
2018-03-18T18:24:28.107Z,81.03
2018-03-18T18:26:55.603Z,80.75
2018-03-18T18:29:23.123Z,80.20
2018-03-18T18:31:50.643Z,80.56
2018-03-18T18:34:18.157Z,80.43
2018-03-18T18:36:46.600Z,79.93
2018-03-18T18:39:14.124Z,80.01
2018-03-18T18:41:41.684Z,80.03
2018-03-18T18:44:09.155Z,80.09
2018-03-18T18:46:36.665Z,80.32
2018-03-18T18:49:04.229Z,80.21
2018-03-18T18:51:31.694Z,80.79
2018-03-18T18:53:59.214Z,80.72
2018-03-18T18:56:26.718Z,80.41
2018-03-18T18:58:54.256Z,80.11
2018-03-18T19:01:21.747Z,80.60
2018-03-18T19:03:49.280Z,80.82
2018-03-18T19:06:16.876Z,80.69
2018-03-18T19:08:44.396Z,80.96
2018-03-18T19:11:11.951Z,80.61
2018-03-18T19:13:39.454Z,81.27
2018-03-18T19:16:07.034Z,80.71
2018-03-18T19:18:34.542Z,80.48
2018-03-18T19:21:02.081Z,80.82
2018-03-18T19:23:29.647Z,80.73
2018-03-18T19:25:57.176Z,80.09
2018-03-18T19:28:25.700Z,80.65
2018-03-18T19:30:53.224Z,80.87
2018-03-18T19:33:20.721Z,80.51
2018-03-18T19:35:48.304Z,80.29
2018-03-18T19:38:15.831Z,80.18
2018-03-18T19:40:43.370Z,80.78
2018-03-18T19:43:10.859Z,80.33
2018-03-18T19:45:38.418Z,80.34
2018-03-18T19:48:05.921Z,80.62
2018-03-18T19:50:33.443Z,80.96
2018-03-18T19:53:00.956Z,81.24
2018-03-18T19:55:29.477Z,80.72
2018-03-18T19:57:56.982Z,80.81
2018-03-18T20:00:24.504Z,80.24
2018-03-18T20:02:52.022Z,80.59
2018-03-18T20:05:19.575Z,80.04
2018-03-18T20:07:47.173Z,79.43
2018-03-18T20:10:14.692Z,79.01
2018-03-18T20:12:42.204Z,79.64
2018-03-18T20:15:09.754Z,79.97
2018-03-18T20:17:37.301Z,79.55
2018-03-18T20:20:04.796Z,79.43
2018-03-18T20:22:32.343Z,79.71
2018-03-18T20:24:59.850Z,79.80
2018-03-18T20:27:27.374Z,79.99
2018-03-18T20:29:54.946Z,79.25
2018-03-18T20:32:22.466Z,79.52
2018-03-18T20:34:49.985Z,79.53
2018-03-18T20:37:17.517Z,79.78
2018-03-18T20:39:45.000Z,79.13
2018-03-18T20:42:12.524Z,79.40
2018-03-18T20:44:40.049Z,78.72
2018-03-18T20:47:07.572Z,78.90
2018-03-18T20:49:35.064Z,79.78
2018-03-18T20:52:03.548Z,79.39
2018-03-18T20:54:31.044Z,80.28
2018-03-18T20:56:58.563Z,79.17
2018-03-18T20:59:26.061Z,78.55
2018-03-18T21:01:53.581Z,78.96
2018-03-18T21:04:21.160Z,78.38
2018-03-18T21:06:48.712Z,79.01
2018-03-18T21:09:16.216Z,79.08
2018-03-18T21:11:43.759Z,78.99
2018-03-18T21:14:11.276Z,79.08
2018-03-18T21:16:38.850Z,79.50
2018-03-18T21:19:06.398Z,80.28
2018-03-18T21:21:33.956Z,79.46
2018-03-18T21:24:01.484Z,80.34
2018-03-18T21:26:28.978Z,80.37
2018-03-18T21:28:56.491Z,80.94
2018-03-18T21:31:23.999Z,81.11
2018-03-18T21:33:51.556Z,80.42
2018-03-18T21:36:19.063Z,80.01
2018-03-18T21:38:46.612Z,79.31
2018-03-18T21:41:14.107Z,79.17
2018-03-18T21:43:41.692Z,79.43
2018-03-18T21:46:09.361Z,80.01
2018-03-18T21:48:36.882Z,80.10
2018-03-18T21:51:04.383Z,80.54
2018-03-18T21:53:31.920Z,80.08
2018-03-18T21:55:59.444Z,81.12
2018-03-18T21:58:26.957Z,80.82
2018-03-18T22:00:54.508Z,81.25
2018-03-18T22:03:22.030Z,81.25
2018-03-18T22:05:49.527Z,81.23
2018-03-18T22:08:17.063Z,80.56
2018-03-18T22:10:44.612Z,80.41
2018-03-18T22:13:12.136Z,80.18
2018-03-18T22:15:40.604Z,80.64
2018-03-18T22:18:08.155Z,81.11
2018-03-18T22:20:35.818Z,81.37
2018-03-18T22:23:03.352Z,81.33
2018-03-18T22:25:30.876Z,81.18
2018-03-18T22:27:58.387Z,81.40
2018-03-18T22:30:25.958Z,81.85
2018-03-18T22:32:53.455Z,82.89
2018-03-18T22:35:20.992Z,81.27
2018-03-18T22:37:48.737Z,81.38
2018-03-18T22:40:16.256Z,82.09
2018-03-18T22:42:43.765Z,82.00
2018-03-18T22:45:11.297Z,82.13
2018-03-18T22:47:38.815Z,81.50
2018-03-18T22:50:06.358Z,82.11
2018-03-18T22:52:33.900Z,82.06
2018-03-18T22:55:01.432Z,81.72
2018-03-18T22:57:28.997Z,81.54
2018-03-18T22:59:56.552Z,81.41
2018-03-18T23:02:24.063Z,81.70
2018-03-18T23:04:51.576Z,82.10
2018-03-18T23:07:19.119Z,82.88
2018-03-18T23:09:46.687Z,83.16
2018-03-18T23:12:14.292Z,82.51
2018-03-18T23:14:48.708Z,82.03
2018-03-18T23:17:16.235Z,81.94
2018-03-18T23:19:43.780Z,82.14
2018-03-18T23:22:11.268Z,81.77
2018-03-18T23:24:38.786Z,81.31
2018-03-18T23:27:06.299Z,81.57
2018-03-18T23:29:33.800Z,81.96
2018-03-18T23:32:01.317Z,82.64
2018-03-18T23:34:28.844Z,82.06
2018-03-18T23:36:56.407Z,82.31
2018-03-18T23:39:23.898Z,81.33
2018-03-18T23:41:51.525Z,81.00
2018-03-18T23:44:19.155Z,80.27
2018-03-18T23:46:46.743Z,80.30
2018-03-18T23:49:14.246Z,81.04
2018-03-18T23:51:41.771Z,82.27
2018-03-18T23:54:09.265Z,82.30
2018-03-18T23:56:36.778Z,82.75
2018-03-18T23:59:04.344Z,82.88
